createdAt,value
2023-05-11T00:03:25.847Z,56.42
2023-05-11T00:07:23.542Z,57.04
2023-05-11T00:11:25.587Z,56.53
2023-05-11T00:15:23.646Z,56.73
2023-05-11T00:19:21.508Z,56.59
2023-05-11T00:23:19.546Z,57.42
2023-05-11T00:27:17.565Z,57.09
2023-05-11T00:31:15.571Z,57.69
2023-05-11T00:35:13.514Z,58.21
2023-05-11T00:39:11.542Z,58.28
2023-05-11T00:43:09.482Z,58.87
2023-05-11T00:47:07.719Z,59.67
2023-05-11T00:51:05.502Z,59.87
2023-05-11T00:55:03.493Z,60.30
2023-05-11T00:59:01.512Z,59.48
2023-05-11T01:02:59.535Z,60.53
2023-05-11T01:07:21.436Z,60.84
2023-05-11T01:11:34.626Z,60.53
2023-05-11T01:15:54.475Z,59.85
2023-05-11T01:20:03.557Z,59.64
2023-05-11T01:24:38.452Z,59.76
2023-05-11T01:28:45.452Z,62.00
2023-05-11T01:32:41.403Z,63.64
2023-05-11T01:36:43.427Z,63.82
2023-05-11T01:40:46.441Z,62.92
2023-05-11T01:44:47.435Z,62.06
2023-05-11T01:48:50.382Z,63.42
2023-05-11T01:52:50.425Z,62.77
2023-05-11T01:56:50.403Z,64.38
2023-05-11T02:00:49.412Z,65.22
2023-05-11T02:04:48.383Z,65.77
2023-05-11T02:08:47.411Z,65.66
2023-05-11T02:12:46.374Z,66.00
2023-05-11T02:16:46.452Z,64.27
2023-05-11T02:20:44.409Z,66.64
2023-05-11T02:24:45.452Z,66.84
2023-05-11T02:28:45.347Z,66.70
2023-05-11T02:32:45.367Z,65.25
2023-05-11T02:36:45.480Z,66.98
2023-05-11T02:41:01.389Z,68.06
2023-05-11T02:45:12.349Z,67.82
2023-05-11T02:49:13.335Z,67.50
2023-05-11T02:53:14.332Z,67.43
2023-05-11T02:57:12.333Z,67.62
2023-05-11T03:01:10.413Z,67.03
2023-05-11T03:05:08.312Z,66.28
2023-05-11T03:09:07.239Z,66.83
2023-05-11T03:13:11.324Z,66.98
2023-05-11T03:17:10.290Z,67.76
2023-05-11T03:21:08.325Z,68.02
2023-05-11T03:25:07.292Z,67.42
2023-05-11T03:29:08.433Z,67.30
2023-05-11T03:33:07.386Z,63.88
2023-05-11T03:37:05.295Z,56.46
2023-05-11T03:41:21.591Z,50.13
2023-05-11T03:45:22.285Z,44.96
2023-05-11T03:49:21.309Z,41.34
2023-05-11T03:53:19.406Z,37.90
2023-05-11T03:57:17.293Z,35.69
2023-05-11T04:01:15.278Z,34.71
2023-05-11T04:05:13.227Z,34.17
2023-05-11T04:09:11.246Z,33.86
2023-05-11T04:13:09.217Z,32.39
2023-05-11T04:17:32.438Z,30.81
2023-05-11T04:21:30.234Z,29.45
2023-05-11T04:25:28.250Z,28.56
2023-05-11T04:29:26.244Z,27.78
2023-05-11T04:33:24.236Z,25.87
2023-05-11T04:37:22.198Z,24.95
2023-05-11T04:41:22.281Z,24.05
2023-05-11T04:45:22.170Z,25.00
2023-05-11T04:49:20.209Z,26.02
2023-05-11T04:53:18.193Z,26.75
2023-05-11T04:57:16.219Z,24.54
2023-05-11T05:01:14.312Z,25.79
2023-05-11T05:05:12.234Z,27.22
2023-05-11T05:09:10.199Z,28.14
2023-05-11T05:13:08.329Z,30.24
2023-05-11T05:17:08.227Z,32.74
2023-05-11T05:21:06.285Z,35.76
2023-05-11T05:25:04.172Z,36.72
2023-05-11T05:29:02.178Z,39.56
2023-05-11T05:33:00.242Z,40.73
2023-05-11T05:36:59.143Z,43.23
2023-05-11T05:40:57.136Z,43.03
2023-05-11T05:44:59.153Z,43.65
2023-05-11T05:48:57.139Z,43.90
2023-05-11T05:52:55.159Z,44.67
2023-05-11T05:56:54.146Z,44.65
2023-05-11T06:00:31.745Z,45.94
2023-05-11T06:03:59.201Z,46.14
2023-05-11T06:07:23.216Z,45.80
2023-05-11T06:10:47.394Z,46.33
2023-05-11T06:14:12.282Z,45.83
2023-05-11T06:17:36.952Z,45.37
2023-05-11T06:21:01.347Z,45.09
2023-05-11T06:24:26.491Z,44.86
2023-05-11T06:27:50.629Z,45.20
2023-05-11T06:31:15.811Z,45.63
2023-05-11T06:34:40.514Z,43.83
2023-05-11T06:38:05.873Z,43.50
2023-05-11T06:41:30.348Z,43.59
2023-05-11T06:44:54.486Z,42.25
2023-05-11T06:48:20.156Z,42.10
2023-05-11T06:51:44.398Z,42.67
2023-05-11T06:55:08.870Z,42.57
2023-05-11T06:58:33.057Z,42.30
2023-05-11T07:01:57.102Z,42.36
2023-05-11T07:05:21.071Z,42.61
2023-05-11T07:08:44.923Z,42.71
2023-05-11T07:12:08.891Z,42.81
2023-05-11T07:15:32.864Z,43.45
2023-05-11T07:18:56.687Z,43.75
2023-05-11T07:22:20.668Z,43.16
2023-05-11T07:25:44.888Z,44.47
2023-05-11T07:29:08.814Z,44.23
2023-05-11T07:32:53.547Z,43.05
2023-05-11T07:36:17.524Z,42.53
2023-05-11T07:39:41.392Z,41.90
2023-05-11T07:43:05.220Z,42.55
2023-05-11T07:46:29.652Z,41.45
2023-05-11T07:49:53.595Z,39.49
2023-05-11T07:53:17.821Z,40.32
2023-05-11T07:56:42.108Z,40.17
2023-05-11T08:00:07.371Z,39.74
2023-05-11T08:03:35.844Z,40.23
2023-05-11T08:06:59.849Z,39.47
2023-05-11T08:10:23.835Z,38.75
2023-05-11T08:16:48.781Z,38.14
2023-05-11T08:20:13.399Z,38.15
2023-05-11T08:23:37.281Z,37.38
2023-05-11T08:27:01.423Z,37.92
2023-05-11T08:30:25.324Z,37.56
2023-05-11T08:33:49.407Z,37.54
2023-05-11T08:37:13.470Z,37.78
2023-05-11T08:40:37.838Z,37.83
2023-05-11T08:44:02.148Z,36.65
2023-05-11T08:47:26.477Z,35.38
2023-05-11T08:50:50.801Z,34.41
2023-05-11T08:54:14.785Z,34.68
2023-05-11T08:57:40.146Z,34.42
2023-05-11T09:01:06.583Z,35.03
2023-05-11T09:04:31.480Z,34.67
2023-05-11T09:08:02.496Z,35.14
2023-05-11T09:11:26.570Z,35.01
2023-05-11T09:14:50.836Z,33.98
2023-05-11T09:18:14.894Z,33.66
2023-05-11T09:21:39.666Z,33.37
2023-05-11T09:25:04.160Z,33.09
2023-05-11T09:31:59.419Z,33.40
2023-05-11T09:35:27.455Z,32.97
2023-05-11T09:42:24.886Z,33.20
2023-05-11T09:45:51.006Z,34.10
2023-05-11T09:49:15.291Z,33.73
2023-05-11T09:52:51.070Z,32.93
2023-05-11T09:56:15.903Z,33.10
2023-05-11T09:59:41.868Z,32.85
2023-05-11T10:03:07.013Z,32.37
2023-05-11T10:06:54.160Z,32.77
2023-05-11T10:10:18.688Z,33.16
2023-05-11T10:13:45.249Z,33.57
2023-05-11T10:17:11.389Z,32.95
2023-05-11T10:20:35.586Z,32.77
2023-05-11T10:23:59.784Z,32.24
2023-05-11T10:27:23.949Z,32.14
2023-05-11T10:30:48.550Z,32.75
2023-05-11T10:34:13.134Z,32.62
2023-05-11T10:37:37.237Z,32.44
2023-05-11T10:41:15.103Z,32.33
2023-05-11T10:44:56.109Z,32.95
2023-05-11T10:48:38.278Z,32.45
2023-05-11T10:52:21.570Z,33.12
2023-05-11T10:56:03.561Z,33.48
2023-05-11T10:59:51.524Z,33.45
2023-05-11T11:03:16.363Z,33.03
2023-05-11T11:06:42.955Z,33.31
2023-05-11T11:10:09.084Z,32.92
2023-05-11T11:13:59.383Z,31.74
2023-05-11T11:17:25.890Z,31.71
2023-05-11T11:20:52.879Z,31.88
2023-05-11T11:24:39.474Z,31.36
2023-05-11T11:28:03.302Z,30.96
2023-05-11T11:31:32.491Z,31.31
2023-05-11T11:34:56.787Z,31.33
2023-05-11T11:38:21.667Z,32.02
2023-05-11T11:41:45.746Z,32.06
2023-05-11T11:45:30.428Z,31.62
2023-05-11T11:49:08.505Z,30.97
2023-05-11T11:52:32.479Z,30.91
2023-05-11T11:55:56.763Z,31.14
2023-05-11T11:59:20.789Z,30.43
2023-05-11T12:02:46.797Z,29.98
2023-05-11T12:06:12.782Z,30.20
2023-05-11T12:09:37.705Z,29.31
2023-05-11T12:13:02.390Z,28.94
2023-05-11T12:16:26.338Z,29.43
2023-05-11T12:19:50.384Z,31.08
2023-05-11T12:23:15.275Z,30.22
2023-05-11T12:26:39.117Z,29.79
2023-05-11T12:30:24.788Z,29.94
2023-05-11T12:33:50.770Z,29.63
2023-05-11T12:37:14.728Z,28.92
2023-05-11T12:40:38.959Z,28.24
2023-05-11T12:44:03.139Z,28.59
2023-05-11T12:47:27.309Z,28.15
2023-05-11T12:50:51.365Z,28.79
2023-05-11T12:54:32.167Z,28.50
2023-05-11T12:58:09.131Z,27.98
2023-05-11T13:02:17.467Z,27.45
2023-05-11T13:05:42.817Z,27.70
2023-05-11T13:09:06.860Z,27.51
2023-05-11T13:12:32.435Z,26.77
2023-05-11T13:15:56.494Z,27.51
2023-05-11T13:19:29.679Z,27.95
2023-05-11T13:23:05.212Z,27.92
2023-05-11T13:26:30.913Z,28.04
2023-05-11T13:29:54.626Z,27.91
2023-05-11T13:33:38.440Z,27.77
2023-05-11T13:37:36.520Z,27.66
2023-05-11T13:41:34.433Z,27.11
2023-05-11T13:45:32.560Z,26.78
2023-05-11T13:49:30.430Z,27.31
2023-05-11T13:53:28.513Z,26.74
2023-05-11T13:57:26.462Z,26.40
2023-05-11T14:01:24.453Z,26.66
2023-05-11T14:05:22.655Z,27.37
2023-05-11T14:09:20.454Z,26.64
2023-05-11T14:13:18.453Z,26.65
2023-05-11T14:17:18.497Z,26.42
2023-05-11T14:21:16.412Z,26.02
2023-05-11T14:25:14.539Z,25.72
2023-05-11T14:29:12.397Z,26.12
2023-05-11T14:32:50.923Z,26.19
2023-05-11T14:36:15.268Z,26.04
2023-05-11T14:39:39.271Z,25.94
2023-05-11T14:43:03.185Z,26.43
2023-05-11T14:46:27.198Z,26.76
2023-05-11T14:49:51.475Z,25.85
2023-05-11T14:53:15.495Z,25.45
2023-05-11T14:56:39.512Z,26.45
2023-05-11T15:00:03.630Z,26.04
2023-05-11T15:03:27.893Z,25.28
2023-05-11T15:06:51.874Z,25.30
2023-05-11T15:10:15.945Z,25.66
2023-05-11T15:13:53.758Z,25.03
2023-05-11T15:17:17.674Z,24.93
2023-05-11T15:20:42.594Z,24.50
2023-05-11T15:24:08.113Z,24.94
2023-05-11T15:27:34.082Z,25.20
2023-05-11T15:30:57.871Z,25.06
2023-05-11T15:34:21.960Z,24.34
2023-05-11T15:37:45.800Z,24.41
2023-05-11T15:41:09.828Z,24.73
2023-05-11T15:44:34.731Z,25.26
2023-05-11T15:47:58.767Z,25.60
2023-05-11T15:51:43.390Z,25.71
2023-05-11T15:55:41.413Z,25.77
2023-05-11T15:59:39.370Z,26.11
2023-05-11T16:03:37.472Z,27.02
2023-05-11T16:07:35.338Z,27.27
2023-05-11T16:11:33.348Z,28.48
2023-05-11T16:15:31.346Z,29.04
2023-05-11T16:19:29.314Z,28.63
2023-05-11T16:23:27.339Z,28.74
2023-05-11T16:27:25.347Z,29.49
2023-05-11T16:31:23.347Z,29.51
2023-05-11T16:35:21.437Z,30.09
2023-05-11T16:39:19.321Z,30.62
2023-05-11T16:43:17.423Z,30.10
2023-05-11T16:47:15.296Z,30.64
2023-05-11T16:51:13.296Z,31.70
2023-05-11T16:55:11.363Z,32.02
2023-05-11T16:59:09.316Z,32.26
2023-05-11T17:03:07.330Z,32.49
2023-05-11T17:07:05.332Z,33.17
2023-05-11T17:11:03.249Z,33.76
2023-05-11T17:15:01.302Z,34.32
2023-05-11T17:18:59.403Z,34.55
2023-05-11T17:22:57.274Z,35.00
2023-05-11T17:26:55.248Z,35.21
2023-05-11T17:30:53.326Z,35.60
2023-05-11T17:34:51.316Z,36.08
2023-05-11T17:38:49.314Z,36.27
2023-05-11T17:42:47.321Z,36.54
2023-05-11T17:46:45.336Z,36.70
2023-05-11T17:50:43.255Z,37.01
2023-05-11T17:54:41.255Z,37.49
2023-05-11T17:58:39.212Z,37.76
2023-05-11T18:02:37.447Z,38.30
2023-05-11T18:06:35.225Z,38.37
2023-05-11T18:10:33.238Z,38.39
2023-05-11T18:14:31.213Z,38.73
2023-05-11T18:18:29.285Z,38.93
2023-05-11T18:22:27.211Z,39.53
2023-05-11T18:26:26.281Z,40.01
2023-05-11T18:30:24.259Z,40.59
2023-05-11T18:34:22.189Z,41.42
2023-05-11T18:38:20.179Z,42.13
2023-05-11T18:42:19.195Z,42.66
2023-05-11T18:46:22.268Z,42.91
2023-05-11T18:50:20.477Z,43.42
2023-05-11T18:54:18.259Z,43.80
2023-05-11T18:58:16.218Z,44.03
2023-05-11T19:02:14.178Z,44.45
2023-05-11T19:06:14.184Z,44.74
2023-05-11T19:10:12.173Z,45.10
2023-05-11T19:14:11.248Z,45.32
2023-05-11T19:18:09.207Z,45.60
2023-05-11T19:22:09.097Z,45.94
2023-05-11T19:26:07.209Z,46.21
2023-05-11T19:30:05.209Z,46.46
2023-05-11T19:34:03.151Z,46.77
2023-05-11T19:38:01.130Z,46.78
2023-05-11T19:41:59.152Z,47.10
2023-05-11T19:45:57.186Z,47.14
2023-05-11T19:49:55.162Z,47.24
2023-05-11T19:53:53.264Z,47.30
2023-05-11T19:57:51.060Z,47.46
2023-05-11T20:01:49.143Z,47.57
2023-05-11T20:05:47.127Z,47.82
2023-05-11T20:09:45.150Z,48.08
2023-05-11T20:13:43.087Z,48.23
2023-05-11T20:17:41.104Z,48.75
2023-05-11T20:21:39.065Z,48.94
2023-05-11T20:25:37.057Z,49.15
2023-05-11T20:29:35.062Z,49.46
2023-05-11T20:37:34.124Z,49.60
2023-05-11T20:41:32.089Z,49.88
2023-05-11T20:45:30.372Z,49.97
2023-05-11T20:49:38.435Z,50.22
2023-05-11T20:53:37.016Z,50.62
2023-05-11T20:57:37.115Z,50.61
2023-05-11T21:01:35.242Z,50.92
2023-05-11T21:05:33.053Z,51.20
2023-05-11T21:09:32.055Z,51.48
2023-05-11T21:13:30.046Z,51.76
2023-05-11T21:17:28.061Z,52.04
2023-05-11T21:21:26.061Z,52.34
2023-05-11T21:25:24.035Z,52.63
2023-05-11T21:29:22.033Z,53.07
2023-05-11T21:33:19.992Z,53.13
2023-05-11T21:37:21.036Z,53.39
2023-05-11T21:41:18.991Z,53.83
2023-05-11T21:45:19.999Z,53.97
2023-05-11T21:49:18.967Z,53.90
2023-05-11T21:53:17.029Z,54.06
2023-05-11T21:57:14.970Z,54.47
2023-05-11T22:01:13.170Z,54.48
2023-05-11T22:05:10.929Z,54.75
2023-05-11T22:09:08.982Z,54.74
2023-05-11T22:13:06.983Z,54.92
2023-05-11T22:17:04.952Z,55.32
2023-05-11T22:21:02.934Z,55.58
2023-05-11T22:25:00.994Z,55.76
2023-05-11T22:28:58.958Z,55.79
2023-05-11T22:32:56.952Z,56.02
2023-05-11T22:36:54.927Z,56.18
2023-05-11T22:40:52.928Z,56.29
2023-05-11T22:45:15.927Z,56.56
2023-05-11T22:49:14.904Z,56.76
2023-05-11T22:53:12.904Z,56.99
2023-05-11T22:57:10.903Z,57.21
2023-05-11T23:01:09.969Z,57.30
2023-05-11T23:05:07.965Z,57.58
2023-05-11T23:09:05.882Z,57.64
2023-05-11T23:13:03.869Z,57.59
2023-05-11T23:17:01.837Z,57.88
2023-05-11T23:20:59.882Z,57.90
2023-05-11T23:24:57.906Z,57.88
2023-05-11T23:28:55.956Z,58.08
2023-05-11T23:32:53.848Z,58.02
2023-05-11T23:36:51.880Z,58.14
2023-05-11T23:40:49.823Z,58.33
2023-05-11T23:44:47.884Z,58.36
2023-05-11T23:48:45.848Z,58.42
2023-05-11T23:52:43.836Z,58.68
2023-05-11T23:56:41.836Z,58.84
